sensor_id;sensor_type;location;lat;lon;timestamp;P1;durP1;ratioP1;P2;durP2;ratioP2
29908;SDS011;36247;51.952;6.146;2024-02-15T00:00:58;35.35;;;22.70;;
29908;SDS011;36247;51.952;6.146;2024-02-15T00:03:25;42.90;;;22.90;;
29908;SDS011;36247;51.952;6.146;2024-02-15T00:05:50;39.63;;;22.92;;
29908;SDS011;36247;51.952;6.146;2024-02-15T00:08:16;32.92;;;23.20;;
29908;SDS011;36247;51.952;6.146;2024-02-15T00:10:41;34.03;;;22.80;;
29908;SDS011;36247;51.952;6.146;2024-02-15T00:13:06;36.42;;;23.67;;
29908;SDS011;36247;51.952;6.146;2024-02-15T00:15:32;39.15;;;23.88;;
29908;SDS011;36247;51.952;6.146;2024-02-15T00:17:59;41.97;;;23.88;;
29908;SDS011;36247;51.952;6.146;2024-02-15T00:20:25;38.65;;;22.23;;
29908;SDS011;36247;51.952;6.146;2024-02-15T00:22:50;31.17;;;22.42;;
29908;SDS011;36247;51.952;6.146;2024-02-15T00:25:17;32.33;;;23.17;;
29908;SDS011;36247;51.952;6.146;2024-02-15T00:27:44;34.65;;;22.83;;
29908;SDS011;36247;51.952;6.146;2024-02-15T00:30:10;33.30;;;22.33;;
29908;SDS011;36247;51.952;6.146;2024-02-15T00:32:36;36.15;;;23.45;;
29908;SDS011;36247;51.952;6.146;2024-02-15T00:35:02;40.22;;;23.20;;
29908;SDS011;36247;51.952;6.146;2024-02-15T00:37:31;37.38;;;25.05;;
29908;SDS011;36247;51.952;6.146;2024-02-15T00:39:56;42.15;;;26.45;;
29908;SDS011;36247;51.952;6.146;2024-02-15T00:42:21;36.95;;;23.77;;
29908;SDS011;36247;51.952;6.146;2024-02-15T00:44:47;44.05;;;27.02;;
29908;SDS011;36247;51.952;6.146;2024-02-15T00:47:12;40.05;;;25.63;;
29908;SDS011;36247;51.952;6.146;2024-02-15T00:49:38;41.05;;;26.30;;
29908;SDS011;36247;51.952;6.146;2024-02-15T00:52:03;46.80;;;27.75;;
29908;SDS011;36247;51.952;6.146;2024-02-15T00:54:29;43.17;;;28.02;;
29908;SDS011;36247;51.952;6.146;2024-02-15T00:56:54;43.95;;;27.60;;
29908;SDS011;36247;51.952;6.146;2024-02-15T00:59:20;48.67;;;28.17;;
29908;SDS011;36247;51.952;6.146;2024-02-15T01:01:45;46.67;;;26.85;;
29908;SDS011;36247;51.952;6.146;2024-02-15T01:04:11;45.75;;;29.83;;
29908;SDS011;36247;51.952;6.146;2024-02-15T01:06:37;49.00;;;29.23;;
29908;SDS011;36247;51.952;6.146;2024-02-15T01:09:02;51.67;;;29.73;;
29908;SDS011;36247;51.952;6.146;2024-02-15T01:11:29;46.03;;;30.05;;
29908;SDS011;36247;51.952;6.146;2024-02-15T01:13:57;49.03;;;29.33;;
29908;SDS011;36247;51.952;6.146;2024-02-15T01:16:23;46.55;;;28.08;;
29908;SDS011;36247;51.952;6.146;2024-02-15T01:18:49;43.30;;;29.10;;
29908;SDS011;36247;51.952;6.146;2024-02-15T01:21:15;48.92;;;29.40;;
29908;SDS011;36247;51.952;6.146;2024-02-15T01:23:40;50.75;;;29.50;;
29908;SDS011;36247;51.952;6.146;2024-02-15T01:26:06;44.85;;;28.23;;
29908;SDS011;36247;51.952;6.146;2024-02-15T01:28:32;40.45;;;28.10;;
29908;SDS011;36247;51.952;6.146;2024-02-15T01:30:57;44.55;;;26.02;;
29908;SDS011;36247;51.952;6.146;2024-02-15T01:33:22;40.70;;;27.52;;
29908;SDS011;36247;51.952;6.146;2024-02-15T01:35:48;36.67;;;25.15;;
29908;SDS011;36247;51.952;6.146;2024-02-15T01:38:14;40.45;;;24.30;;
29908;SDS011;36247;51.952;6.146;2024-02-15T01:40:40;40.97;;;25.55;;
29908;SDS011;36247;51.952;6.146;2024-02-15T01:43:05;38.88;;;25.63;;
29908;SDS011;36247;51.952;6.146;2024-02-15T01:45:31;40.00;;;26.13;;
29908;SDS011;36247;51.952;6.146;2024-02-15T01:47:56;43.13;;;26.98;;
29908;SDS011;36247;51.952;6.146;2024-02-15T01:50:22;44.05;;;27.17;;
29908;SDS011;36247;51.952;6.146;2024-02-15T01:52:49;42.45;;;28.25;;
29908;SDS011;36247;51.952;6.146;2024-02-15T01:55:19;45.03;;;29.08;;
29908;SDS011;36247;51.952;6.146;2024-02-15T01:57:47;41.13;;;27.88;;
29908;SDS011;36247;51.952;6.146;2024-02-15T02:00:15;42.92;;;27.98;;
29908;SDS011;36247;51.952;6.146;2024-02-15T02:02:42;46.75;;;26.30;;
29908;SDS011;36247;51.952;6.146;2024-02-15T02:05:09;42.45;;;24.88;;
29908;SDS011;36247;51.952;6.146;2024-02-15T02:07:35;46.42;;;25.10;;
29908;SDS011;36247;51.952;6.146;2024-02-15T02:10:01;43.58;;;25.17;;
29908;SDS011;36247;51.952;6.146;2024-02-15T02:12:26;46.05;;;26.50;;
29908;SDS011;36247;51.952;6.146;2024-02-15T02:14:55;50.15;;;28.52;;
29908;SDS011;36247;51.952;6.146;2024-02-15T02:17:21;46.53;;;27.17;;
29908;SDS011;36247;51.952;6.146;2024-02-15T02:19:46;39.15;;;24.75;;
29908;SDS011;36247;51.952;6.146;2024-02-15T02:22:13;48.58;;;26.70;;
29908;SDS011;36247;51.952;6.146;2024-02-15T02:25:24;45.35;;;26.63;;
29908;SDS011;36247;51.952;6.146;2024-02-15T02:27:35;39.28;;;25.33;;
29908;SDS011;36247;51.952;6.146;2024-02-15T02:30:04;41.92;;;25.20;;
29908;SDS011;36247;51.952;6.146;2024-02-15T02:32:34;43.63;;;25.95;;
29908;SDS011;36247;51.952;6.146;2024-02-15T02:35:01;40.05;;;25.52;;
29908;SDS011;36247;51.952;6.146;2024-02-15T02:37:27;41.60;;;24.38;;
29908;SDS011;36247;51.952;6.146;2024-02-15T02:39:53;47.25;;;24.38;;
29908;SDS011;36247;51.952;6.146;2024-02-15T02:42:18;42.00;;;24.25;;
29908;SDS011;36247;51.952;6.146;2024-02-15T02:44:44;35.60;;;22.60;;
29908;SDS011;36247;51.952;6.146;2024-02-15T02:47:09;45.20;;;22.13;;
29908;SDS011;36247;51.952;6.146;2024-02-15T02:49:35;40.45;;;21.20;;
29908;SDS011;36247;51.952;6.146;2024-02-15T02:52:01;39.55;;;21.60;;
29908;SDS011;36247;51.952;6.146;2024-02-15T02:54:26;38.15;;;20.05;;
29908;SDS011;36247;51.952;6.146;2024-02-15T02:56:51;34.05;;;18.70;;
29908;SDS011;36247;51.952;6.146;2024-02-15T02:59:17;35.55;;;19.65;;
29908;SDS011;36247;51.952;6.146;2024-02-15T03:01:42;42.47;;;20.67;;
29908;SDS011;36247;51.952;6.146;2024-02-15T03:04:08;33.30;;;19.10;;
29908;SDS011;36247;51.952;6.146;2024-02-15T03:06:33;31.60;;;18.23;;
29908;SDS011;36247;51.952;6.146;2024-02-15T03:08:59;31.65;;;17.85;;
29908;SDS011;36247;51.952;6.146;2024-02-15T03:11:24;30.40;;;17.70;;
29908;SDS011;36247;51.952;6.146;2024-02-15T03:13:50;29.80;;;18.13;;
29908;SDS011;36247;51.952;6.146;2024-02-15T03:16:15;31.27;;;18.20;;
29908;SDS011;36247;51.952;6.146;2024-02-15T03:18:41;35.35;;;17.55;;
29908;SDS011;36247;51.952;6.146;2024-02-15T03:21:08;30.90;;;16.83;;
29908;SDS011;36247;51.952;6.146;2024-02-15T03:23:36;33.58;;;17.20;;
29908;SDS011;36247;51.952;6.146;2024-02-15T03:26:02;28.27;;;17.08;;
29908;SDS011;36247;51.952;6.146;2024-02-15T03:28:28;36.55;;;16.73;;
29908;SDS011;36247;51.952;6.146;2024-02-15T03:30:55;34.75;;;14.68;;
29908;SDS011;36247;51.952;6.146;2024-02-15T03:33:21;31.58;;;14.52;;
29908;SDS011;36247;51.952;6.146;2024-02-15T03:35:51;27.17;;;14.63;;
29908;SDS011;36247;51.952;6.146;2024-02-15T03:38:17;33.00;;;15.75;;
29908;SDS011;36247;51.952;6.146;2024-02-15T03:40:42;31.80;;;15.93;;
29908;SDS011;36247;51.952;6.146;2024-02-15T03:43:08;32.90;;;15.35;;
29908;SDS011;36247;51.952;6.146;2024-02-15T03:45:34;27.67;;;14.55;;
29908;SDS011;36247;51.952;6.146;2024-02-15T03:47:59;29.02;;;14.88;;
29908;SDS011;36247;51.952;6.146;2024-02-15T03:50:25;29.35;;;14.50;;
29908;SDS011;36247;51.952;6.146;2024-02-15T03:52:50;28.48;;;14.30;;
29908;SDS011;36247;51.952;6.146;2024-02-15T03:55:16;30.00;;;15.02;;
29908;SDS011;36247;51.952;6.146;2024-02-15T03:57:41;28.63;;;13.90;;
29908;SDS011;36247;51.952;6.146;2024-02-15T04:00:11;28.75;;;13.23;;
29908;SDS011;36247;51.952;6.146;2024-02-15T04:02:40;31.55;;;13.15;;
29908;SDS011;36247;51.952;6.146;2024-02-15T04:05:06;30.20;;;14.02;;
29908;SDS011;36247;51.952;6.146;2024-02-15T04:07:32;28.55;;;12.73;;
29908;SDS011;36247;51.952;6.146;2024-02-15T04:09:58;22.80;;;12.32;;
29908;SDS011;36247;51.952;6.146;2024-02-15T04:12:25;29.85;;;13.00;;
29908;SDS011;36247;51.952;6.146;2024-02-15T04:14:52;23.00;;;13.02;;
29908;SDS011;36247;51.952;6.146;2024-02-15T04:17:17;31.30;;;11.68;;
29908;SDS011;36247;51.952;6.146;2024-02-15T04:19:46;27.65;;;12.77;;
29908;SDS011;36247;51.952;6.146;2024-02-15T04:22:12;30.08;;;12.02;;
29908;SDS011;36247;51.952;6.146;2024-02-15T04:24:41;30.17;;;12.50;;
29908;SDS011;36247;51.952;6.146;2024-02-15T04:27:10;27.27;;;12.30;;
29908;SDS011;36247;51.952;6.146;2024-02-15T04:29:39;23.25;;;12.43;;
29908;SDS011;36247;51.952;6.146;2024-02-15T04:32:09;25.02;;;12.13;;
29908;SDS011;36247;51.952;6.146;2024-02-15T04:34:44;24.67;;;12.23;;
29908;SDS011;36247;51.952;6.146;2024-02-15T04:37:11;26.08;;;11.88;;
29908;SDS011;36247;51.952;6.146;2024-02-15T04:39:38;20.40;;;11.73;;
29908;SDS011;36247;51.952;6.146;2024-02-15T04:42:04;19.48;;;11.77;;
29908;SDS011;36247;51.952;6.146;2024-02-15T04:44:32;26.20;;;12.95;;
29908;SDS011;36247;51.952;6.146;2024-02-15T04:47:00;34.63;;;13.23;;
29908;SDS011;36247;51.952;6.146;2024-02-15T04:49:26;27.38;;;13.63;;
29908;SDS011;36247;51.952;6.146;2024-02-15T04:51:54;26.05;;;13.55;;
29908;SDS011;36247;51.952;6.146;2024-02-15T04:54:19;37.97;;;13.73;;
29908;SDS011;36247;51.952;6.146;2024-02-15T04:56:45;30.73;;;14.15;;
29908;SDS011;36247;51.952;6.146;2024-02-15T04:59:11;25.20;;;14.35;;
29908;SDS011;36247;51.952;6.146;2024-02-15T05:01:40;22.90;;;12.50;;
29908;SDS011;36247;51.952;6.146;2024-02-15T05:04:10;27.92;;;13.82;;
29908;SDS011;36247;51.952;6.146;2024-02-15T05:06:36;27.90;;;14.32;;
29908;SDS011;36247;51.952;6.146;2024-02-15T05:09:02;20.95;;;12.65;;
29908;SDS011;36247;51.952;6.146;2024-02-15T05:11:41;29.05;;;12.60;;
29908;SDS011;36247;51.952;6.146;2024-02-15T05:14:11;28.50;;;12.98;;
29908;SDS011;36247;51.952;6.146;2024-02-15T05:16:37;23.73;;;11.57;;
29908;SDS011;36247;51.952;6.146;2024-02-15T05:19:10;16.52;;;10.00;;
29908;SDS011;36247;51.952;6.146;2024-02-15T05:21:38;24.20;;;9.98;;
29908;SDS011;36247;51.952;6.146;2024-02-15T05:24:04;19.45;;;9.07;;
29908;SDS011;36247;51.952;6.146;2024-02-15T05:26:30;21.40;;;9.68;;
29908;SDS011;36247;51.952;6.146;2024-02-15T05:28:55;18.63;;;9.57;;
29908;SDS011;36247;51.952;6.146;2024-02-15T05:31:21;25.80;;;10.18;;
29908;SDS011;36247;51.952;6.146;2024-02-15T05:33:47;18.10;;;10.25;;
29908;SDS011;36247;51.952;6.146;2024-02-15T05:36:13;20.40;;;8.65;;
29908;SDS011;36247;51.952;6.146;2024-02-15T05:38:39;29.85;;;9.93;;
29908;SDS011;36247;51.952;6.146;2024-02-15T05:41:05;22.88;;;10.32;;
29908;SDS011;36247;51.952;6.146;2024-02-15T05:43:34;16.95;;;9.73;;
29908;SDS011;36247;51.952;6.146;2024-02-15T05:46:01;28.83;;;9.75;;
29908;SDS011;36247;51.952;6.146;2024-02-15T05:48:31;18.40;;;9.10;;
29908;SDS011;36247;51.952;6.146;2024-02-15T05:51:00;18.25;;;9.02;;
29908;SDS011;36247;51.952;6.146;2024-02-15T05:53:26;18.23;;;8.82;;
29908;SDS011;36247;51.952;6.146;2024-02-15T05:55:51;19.75;;;8.43;;
29908;SDS011;36247;51.952;6.146;2024-02-15T05:58:17;14.80;;;8.00;;
29908;SDS011;36247;51.952;6.146;2024-02-15T06:00:42;23.25;;;10.00;;
29908;SDS011;36247;51.952;6.146;2024-02-15T06:03:14;26.25;;;9.70;;
29908;SDS011;36247;51.952;6.146;2024-02-15T06:05:43;14.70;;;8.15;;
29908;SDS011;36247;51.952;6.146;2024-02-15T06:08:10;20.90;;;8.88;;
29908;SDS011;36247;51.952;6.146;2024-02-15T06:10:37;13.77;;;8.32;;
29908;SDS011;36247;51.952;6.146;2024-02-15T06:13:03;18.17;;;8.15;;
29908;SDS011;36247;51.952;6.146;2024-02-15T06:15:29;15.95;;;8.18;;
29908;SDS011;36247;51.952;6.146;2024-02-15T06:17:54;15.27;;;7.40;;
29908;SDS011;36247;51.952;6.146;2024-02-15T06:20:20;21.75;;;8.25;;
29908;SDS011;36247;51.952;6.146;2024-02-15T06:22:48;22.55;;;8.43;;
29908;SDS011;36247;51.952;6.146;2024-02-15T06:25:14;16.73;;;8.05;;
29908;SDS011;36247;51.952;6.146;2024-02-15T06:27:46;16.42;;;7.90;;
29908;SDS011;36247;51.952;6.146;2024-02-15T06:30:13;17.33;;;8.35;;
29908;SDS011;36247;51.952;6.146;2024-02-15T06:32:58;16.05;;;7.55;;
29908;SDS011;36247;51.952;6.146;2024-02-15T06:35:42;21.05;;;7.30;;
29908;SDS011;36247;51.952;6.146;2024-02-15T06:38:26;19.75;;;7.35;;
29908;SDS011;36247;51.952;6.146;2024-02-15T06:41:10;16.13;;;7.25;;
29908;SDS011;36247;51.952;6.146;2024-02-15T06:43:36;19.02;;;7.60;;
29908;SDS011;36247;51.952;6.146;2024-02-15T06:46:02;14.38;;;6.63;;
29908;SDS011;36247;51.952;6.146;2024-02-15T06:48:30;17.60;;;7.45;;
29908;SDS011;36247;51.952;6.146;2024-02-15T06:50:56;14.93;;;6.07;;
29908;SDS011;36247;51.952;6.146;2024-02-15T06:53:22;17.58;;;6.85;;
29908;SDS011;36247;51.952;6.146;2024-02-15T06:55:47;11.75;;;7.15;;
29908;SDS011;36247;51.952;6.146;2024-02-15T06:58:16;19.00;;;7.03;;
29908;SDS011;36247;51.952;6.146;2024-02-15T07:00:43;19.88;;;6.28;;
29908;SDS011;36247;51.952;6.146;2024-02-15T07:03:09;11.95;;;6.85;;
29908;SDS011;36247;51.952;6.146;2024-02-15T07:05:36;11.32;;;6.47;;
29908;SDS011;36247;51.952;6.146;2024-02-15T07:08:03;13.18;;;7.45;;
29908;SDS011;36247;51.952;6.146;2024-02-15T07:10:30;14.63;;;8.70;;
29908;SDS011;36247;51.952;6.146;2024-02-15T07:12:56;18.77;;;9.65;;
29908;SDS011;36247;51.952;6.146;2024-02-15T07:15:22;27.08;;;10.10;;
29908;SDS011;36247;51.952;6.146;2024-02-15T07:17:47;17.95;;;10.13;;
29908;SDS011;36247;51.952;6.146;2024-02-15T07:20:13;18.50;;;10.85;;
29908;SDS011;36247;51.952;6.146;2024-02-15T07:22:42;19.50;;;9.60;;
29908;SDS011;36247;51.952;6.146;2024-02-15T07:25:10;17.10;;;8.73;;
29908;SDS011;36247;51.952;6.146;2024-02-15T07:27:36;23.17;;;10.77;;
29908;SDS011;36247;51.952;6.146;2024-02-15T07:30:02;21.17;;;9.63;;
29908;SDS011;36247;51.952;6.146;2024-02-15T07:32:29;22.08;;;8.68;;
29908;SDS011;36247;51.952;6.146;2024-02-15T07:34:56;11.88;;;7.85;;
29908;SDS011;36247;51.952;6.146;2024-02-15T07:37:22;22.60;;;7.90;;
29908;SDS011;36247;51.952;6.146;2024-02-15T07:39:51;19.02;;;8.93;;
29908;SDS011;36247;51.952;6.146;2024-02-15T07:42:17;19.58;;;7.70;;
29908;SDS011;36247;51.952;6.146;2024-02-15T07:44:42;17.05;;;7.93;;
29908;SDS011;36247;51.952;6.146;2024-02-15T07:47:08;12.85;;;7.22;;
29908;SDS011;36247;51.952;6.146;2024-02-15T07:49:35;13.23;;;7.45;;
29908;SDS011;36247;51.952;6.146;2024-02-15T07:52:01;11.07;;;6.95;;
29908;SDS011;36247;51.952;6.146;2024-02-15T07:54:29;18.42;;;7.85;;
29908;SDS011;36247;51.952;6.146;2024-02-15T07:56:56;17.05;;;7.72;;
29908;SDS011;36247;51.952;6.146;2024-02-15T07:59:22;15.45;;;7.95;;
29908;SDS011;36247;51.952;6.146;2024-02-15T08:01:48;13.57;;;8.30;;
29908;SDS011;36247;51.952;6.146;2024-02-15T08:04:18;14.38;;;7.68;;
29908;SDS011;36247;51.952;6.146;2024-02-15T08:06:45;19.45;;;9.27;;
29908;SDS011;36247;51.952;6.146;2024-02-15T08:09:10;15.57;;;8.52;;
29908;SDS011;36247;51.952;6.146;2024-02-15T08:11:39;15.75;;;8.85;;
29908;SDS011;36247;51.952;6.146;2024-02-15T08:14:05;14.55;;;8.60;;
29908;SDS011;36247;51.952;6.146;2024-02-15T08:16:33;17.52;;;10.18;;
29908;SDS011;36247;51.952;6.146;2024-02-15T08:18:59;22.70;;;10.13;;
29908;SDS011;36247;51.952;6.146;2024-02-15T08:21:30;21.40;;;11.02;;
29908;SDS011;36247;51.952;6.146;2024-02-15T08:24:01;15.35;;;12.30;;
29908;SDS011;36247;51.952;6.146;2024-02-15T08:29:03;18.60;;;10.65;;
29908;SDS011;36247;51.952;6.146;2024-02-15T08:31:29;19.05;;;10.60;;
29908;SDS011;36247;51.952;6.146;2024-02-15T08:33:59;14.70;;;9.27;;
29908;SDS011;36247;51.952;6.146;2024-02-15T08:36:25;18.27;;;10.80;;
29908;SDS011;36247;51.952;6.146;2024-02-15T08:38:51;15.00;;;9.80;;
29908;SDS011;36247;51.952;6.146;2024-02-15T08:41:17;13.98;;;9.52;;
29908;SDS011;36247;51.952;6.146;2024-02-15T08:43:52;19.02;;;10.70;;
29908;SDS011;36247;51.952;6.146;2024-02-15T08:46:18;19.38;;;10.60;;
29908;SDS011;36247;51.952;6.146;2024-02-15T08:48:44;18.95;;;11.35;;
29908;SDS011;36247;51.952;6.146;2024-02-15T08:51:10;15.35;;;10.93;;
29908;SDS011;36247;51.952;6.146;2024-02-15T08:53:35;15.05;;;10.43;;
29908;SDS011;36247;51.952;6.146;2024-02-15T08:56:03;17.85;;;10.48;;
29908;SDS011;36247;51.952;6.146;2024-02-15T08:58:30;16.50;;;10.27;;
29908;SDS011;36247;51.952;6.146;2024-02-15T09:00:56;17.67;;;10.45;;
29908;SDS011;36247;51.952;6.146;2024-02-15T09:03:22;15.77;;;9.48;;
29908;SDS011;36247;51.952;6.146;2024-02-15T09:05:47;15.82;;;8.65;;
29908;SDS011;36247;51.952;6.146;2024-02-15T09:08:13;14.93;;;9.73;;
29908;SDS011;36247;51.952;6.146;2024-02-15T09:10:40;14.82;;;8.80;;
29908;SDS011;36247;51.952;6.146;2024-02-15T09:13:07;13.88;;;8.52;;
29908;SDS011;36247;51.952;6.146;2024-02-15T09:15:33;14.88;;;7.63;;
29908;SDS011;36247;51.952;6.146;2024-02-15T09:17:59;14.98;;;7.75;;
29908;SDS011;36247;51.952;6.146;2024-02-15T09:20:24;13.32;;;7.55;;
29908;SDS011;36247;51.952;6.146;2024-02-15T09:22:53;11.75;;;7.60;;
29908;SDS011;36247;51.952;6.146;2024-02-15T09:25:20;14.25;;;7.75;;
29908;SDS011;36247;51.952;6.146;2024-02-15T09:27:50;15.07;;;7.75;;
29908;SDS011;36247;51.952;6.146;2024-02-15T09:30:16;13.02;;;7.05;;
29908;SDS011;36247;51.952;6.146;2024-02-15T09:32:43;11.88;;;7.22;;
29908;SDS011;36247;51.952;6.146;2024-02-15T09:35:09;19.25;;;8.00;;
29908;SDS011;36247;51.952;6.146;2024-02-15T09:37:43;14.98;;;8.23;;
29908;SDS011;36247;51.952;6.146;2024-02-15T09:40:16;12.23;;;7.03;;
29908;SDS011;36247;51.952;6.146;2024-02-15T09:42:43;19.80;;;8.48;;
29908;SDS011;36247;51.952;6.146;2024-02-15T09:45:10;16.92;;;6.97;;
29908;SDS011;36247;51.952;6.146;2024-02-15T09:47:38;10.65;;;6.72;;
29908;SDS011;36247;51.952;6.146;2024-02-15T09:50:09;17.38;;;6.70;;
29908;SDS011;36247;51.952;6.146;2024-02-15T09:52:45;13.10;;;6.85;;
29908;SDS011;36247;51.952;6.146;2024-02-15T09:55:17;15.35;;;6.80;;
29908;SDS011;36247;51.952;6.146;2024-02-15T09:57:44;13.63;;;6.45;;
29908;SDS011;36247;51.952;6.146;2024-02-15T10:00:13;12.40;;;6.03;;
29908;SDS011;36247;51.952;6.146;2024-02-15T10:02:40;12.73;;;6.95;;
29908;SDS011;36247;51.952;6.146;2024-02-15T10:05:09;12.25;;;6.57;;
29908;SDS011;36247;51.952;6.146;2024-02-15T10:07:38;12.77;;;6.18;;
29908;SDS011;36247;51.952;6.146;2024-02-15T10:10:18;17.20;;;6.50;;
29908;SDS011;36247;51.952;6.146;2024-02-15T10:12:48;9.95;;;6.15;;
29908;SDS011;36247;51.952;6.146;2024-02-15T10:17:59;13.32;;;6.93;;
29908;SDS011;36247;51.952;6.146;2024-02-15T10:20:25;18.30;;;7.50;;
29908;SDS011;36247;51.952;6.146;2024-02-15T10:25:28;18.88;;;7.78;;
29908;SDS011;36247;51.952;6.146;2024-02-15T10:28:04;16.17;;;6.95;;
29908;SDS011;36247;51.952;6.146;2024-02-15T10:30:36;12.70;;;7.10;;
29908;SDS011;36247;51.952;6.146;2024-02-15T10:33:09;15.57;;;7.07;;
29908;SDS011;36247;51.952;6.146;2024-02-15T10:35:35;13.52;;;6.78;;
29908;SDS011;36247;51.952;6.146;2024-02-15T10:38:19;11.77;;;6.63;;
29908;SDS011;36247;51.952;6.146;2024-02-15T10:40:50;15.48;;;6.50;;
29908;SDS011;36247;51.952;6.146;2024-02-15T10:43:30;18.75;;;6.65;;
29908;SDS011;36247;51.952;6.146;2024-02-15T10:45:57;10.35;;;5.68;;
29908;SDS011;36247;51.952;6.146;2024-02-15T10:48:24;10.45;;;6.13;;
29908;SDS011;36247;51.952;6.146;2024-02-15T10:50:49;16.63;;;5.70;;
29908;SDS011;36247;51.952;6.146;2024-02-15T10:58:32;17.33;;;7.15;;
29908;SDS011;36247;51.952;6.146;2024-02-15T11:01:01;11.90;;;5.65;;
29908;SDS011;36247;51.952;6.146;2024-02-15T11:03:32;11.85;;;5.40;;
29908;SDS011;36247;51.952;6.146;2024-02-15T11:06:06;11.93;;;5.72;;
29908;SDS011;36247;51.952;6.146;2024-02-15T11:08:34;12.90;;;6.07;;
29908;SDS011;36247;51.952;6.146;2024-02-15T11:11:00;10.57;;;4.97;;
29908;SDS011;36247;51.952;6.146;2024-02-15T11:13:29;14.25;;;6.30;;
29908;SDS011;36247;51.952;6.146;2024-02-15T11:15:55;9.63;;;5.28;;
29908;SDS011;36247;51.952;6.146;2024-02-15T11:21:16;13.48;;;5.55;;
29908;SDS011;36247;51.952;6.146;2024-02-15T11:27:06;9.43;;;5.25;;
29908;SDS011;36247;51.952;6.146;2024-02-15T11:35:05;13.90;;;5.90;;
29908;SDS011;36247;51.952;6.146;2024-02-15T11:40:13;16.83;;;5.78;;
29908;SDS011;36247;51.952;6.146;2024-02-15T11:42:43;16.20;;;6.07;;
29908;SDS011;36247;51.952;6.146;2024-02-15T11:45:09;14.48;;;5.40;;
29908;SDS011;36247;51.952;6.146;2024-02-15T11:47:37;10.48;;;5.60;;
29908;SDS011;36247;51.952;6.146;2024-02-15T11:50:14;8.77;;;5.35;;
29908;SDS011;36247;51.952;6.146;2024-02-15T11:52:43;9.93;;;5.00;;
29908;SDS011;36247;51.952;6.146;2024-02-15T11:55:09;13.77;;;5.15;;
29908;SDS011;36247;51.952;6.146;2024-02-15T11:57:41;11.32;;;5.65;;
29908;SDS011;36247;51.952;6.146;2024-02-15T12:03:20;10.85;;;5.55;;
29908;SDS011;36247;51.952;6.146;2024-02-15T12:06:05;12.98;;;6.40;;
29908;SDS011;36247;51.952;6.146;2024-02-15T12:08:51;13.52;;;6.70;;
29908;SDS011;36247;51.952;6.146;2024-02-15T12:11:36;11.18;;;5.45;;
29908;SDS011;36247;51.952;6.146;2024-02-15T12:14:21;13.30;;;5.43;;
29908;SDS011;36247;51.952;6.146;2024-02-15T12:17:11;12.05;;;5.60;;
29908;SDS011;36247;51.952;6.146;2024-02-15T12:19:57;12.45;;;5.63;;
29908;SDS011;36247;51.952;6.146;2024-02-15T12:22:26;8.30;;;4.68;;
29908;SDS011;36247;51.952;6.146;2024-02-15T12:27:23;14.50;;;5.50;;
29908;SDS011;36247;51.952;6.146;2024-02-15T12:29:58;13.05;;;5.38;;
29908;SDS011;36247;51.952;6.146;2024-02-15T12:32:25;8.05;;;4.30;;
29908;SDS011;36247;51.952;6.146;2024-02-15T12:34:52;9.90;;;4.18;;
29908;SDS011;36247;51.952;6.146;2024-02-15T12:37:18;10.68;;;4.53;;
29908;SDS011;36247;51.952;6.146;2024-02-15T12:39:46;8.52;;;4.53;;
29908;SDS011;36247;51.952;6.146;2024-02-15T12:42:15;12.43;;;4.35;;
29908;SDS011;36247;51.952;6.146;2024-02-15T12:44:45;7.85;;;4.38;;
29908;SDS011;36247;51.952;6.146;2024-02-15T12:47:21;8.32;;;3.78;;
29908;SDS011;36247;51.952;6.146;2024-02-15T12:49:47;7.93;;;4.20;;
29908;SDS011;36247;51.952;6.146;2024-02-15T12:52:34;9.35;;;3.90;;
29908;SDS011;36247;51.952;6.146;2024-02-15T12:55:14;7.93;;;3.50;;
29908;SDS011;36247;51.952;6.146;2024-02-15T12:57:42;6.57;;;3.80;;
29908;SDS011;36247;51.952;6.146;2024-02-15T13:00:13;5.88;;;3.88;;
29908;SDS011;36247;51.952;6.146;2024-02-15T13:02:43;7.90;;;3.90;;
29908;SDS011;36247;51.952;6.146;2024-02-15T13:05:10;9.50;;;3.70;;
29908;SDS011;36247;51.952;6.146;2024-02-15T13:07:36;12.25;;;3.75;;
29908;SDS011;36247;51.952;6.146;2024-02-15T13:10:03;6.75;;;3.50;;
29908;SDS011;36247;51.952;6.146;2024-02-15T13:12:32;9.30;;;3.53;;
29908;SDS011;36247;51.952;6.146;2024-02-15T13:15:00;13.23;;;3.70;;
29908;SDS011;36247;51.952;6.146;2024-02-15T13:17:28;9.48;;;3.55;;
29908;SDS011;36247;51.952;6.146;2024-02-15T13:19:54;7.70;;;3.95;;
29908;SDS011;36247;51.952;6.146;2024-02-15T13:22:27;9.07;;;4.05;;
29908;SDS011;36247;51.952;6.146;2024-02-15T13:24:53;5.68;;;4.07;;
29908;SDS011;36247;51.952;6.146;2024-02-15T13:27:20;13.70;;;6.35;;
29908;SDS011;36247;51.952;6.146;2024-02-15T13:29:48;14.60;;;3.88;;
29908;SDS011;36247;51.952;6.146;2024-02-15T13:32:13;12.07;;;3.72;;
29908;SDS011;36247;51.952;6.146;2024-02-15T13:34:42;17.42;;;4.13;;
29908;SDS011;36247;51.952;6.146;2024-02-15T13:37:08;15.18;;;4.00;;
29908;SDS011;36247;51.952;6.146;2024-02-15T13:39:33;7.60;;;3.80;;
29908;SDS011;36247;51.952;6.146;2024-02-15T13:42:02;11.00;;;5.32;;
29908;SDS011;36247;51.952;6.146;2024-02-15T13:44:27;7.43;;;4.32;;
29908;SDS011;36247;51.952;6.146;2024-02-15T13:46:56;10.68;;;4.82;;
29908;SDS011;36247;51.952;6.146;2024-02-15T13:49:22;11.20;;;5.18;;
29908;SDS011;36247;51.952;6.146;2024-02-15T13:51:47;12.02;;;4.43;;
29908;SDS011;36247;51.952;6.146;2024-02-15T13:54:14;18.67;;;5.78;;
29908;SDS011;36247;51.952;6.146;2024-02-15T13:56:39;9.48;;;4.10;;
29908;SDS011;36247;51.952;6.146;2024-02-15T13:59:05;11.20;;;4.93;;
29908;SDS011;36247;51.952;6.146;2024-02-15T14:01:31;11.48;;;6.20;;
29908;SDS011;36247;51.952;6.146;2024-02-15T14:03:56;9.07;;;4.78;;
29908;SDS011;36247;51.952;6.146;2024-02-15T14:06:22;8.27;;;4.82;;
29908;SDS011;36247;51.952;6.146;2024-02-15T14:08:48;11.13;;;4.53;;
29908;SDS011;36247;51.952;6.146;2024-02-15T14:11:14;11.90;;;4.53;;
29908;SDS011;36247;51.952;6.146;2024-02-15T14:13:39;9.77;;;3.67;;
29908;SDS011;36247;51.952;6.146;2024-02-15T14:16:06;13.65;;;4.80;;
29908;SDS011;36247;51.952;6.146;2024-02-15T14:18:33;9.13;;;5.15;;
29908;SDS011;36247;51.952;6.146;2024-02-15T14:20:58;10.55;;;5.80;;
29908;SDS011;36247;51.952;6.146;2024-02-15T14:23:25;14.48;;;6.32;;
29908;SDS011;36247;51.952;6.146;2024-02-15T14:25:52;16.08;;;6.30;;
29908;SDS011;36247;51.952;6.146;2024-02-15T14:28:19;10.73;;;4.72;;
29908;SDS011;36247;51.952;6.146;2024-02-15T14:30:44;9.07;;;4.70;;
29908;SDS011;36247;51.952;6.146;2024-02-15T14:33:28;9.40;;;4.60;;
29908;SDS011;36247;51.952;6.146;2024-02-15T14:35:53;8.95;;;4.03;;
29908;SDS011;36247;51.952;6.146;2024-02-15T14:38:20;8.90;;;4.07;;
29908;SDS011;36247;51.952;6.146;2024-02-15T14:40:47;9.65;;;4.28;;
29908;SDS011;36247;51.952;6.146;2024-02-15T14:43:22;13.80;;;4.45;;
29908;SDS011;36247;51.952;6.146;2024-02-15T14:45:50;10.98;;;3.67;;
29908;SDS011;36247;51.952;6.146;2024-02-15T14:48:16;8.65;;;3.88;;
29908;SDS011;36247;51.952;6.146;2024-02-15T14:50:45;10.70;;;4.78;;
29908;SDS011;36247;51.952;6.146;2024-02-15T14:53:12;9.10;;;3.70;;
29908;SDS011;36247;51.952;6.146;2024-02-15T14:55:38;16.05;;;3.75;;
29908;SDS011;36247;51.952;6.146;2024-02-15T14:58:04;9.52;;;3.50;;
29908;SDS011;36247;51.952;6.146;2024-02-15T15:00:33;8.02;;;3.97;;
29908;SDS011;36247;51.952;6.146;2024-02-15T15:02:58;7.60;;;3.50;;
29908;SDS011;36247;51.952;6.146;2024-02-15T15:05:24;8.23;;;3.67;;
29908;SDS011;36247;51.952;6.146;2024-02-15T15:08:08;10.30;;;4.93;;